sensor_id;sensor_type;location;lat;lon;timestamp;P1;durP1;ratioP1;P2;durP2;ratioP2
74941;SDS011;63506;49.346;8.798;2023-03-01T00:01:45;13.02;;;7.60;;
74941;SDS011;63506;49.346;8.798;2023-03-01T00:04:14;11.10;;;7.35;;
74941;SDS011;63506;49.346;8.798;2023-03-01T00:06:42;11.40;;;9.13;;
74941;SDS011;63506;49.346;8.798;2023-03-01T00:09:11;14.63;;;10.65;;
74941;SDS011;63506;49.346;8.798;2023-03-01T00:11:42;11.10;;;8.00;;
74941;SDS011;63506;49.346;8.798;2023-03-01T00:14:10;12.68;;;8.55;;
74941;SDS011;63506;49.346;8.798;2023-03-01T00:16:38;13.57;;;8.65;;
74941;SDS011;63506;49.346;8.798;2023-03-01T00:19:06;11.25;;;9.48;;
74941;SDS011;63506;49.346;8.798;2023-03-01T00:21:39;14.30;;;9.45;;
74941;SDS011;63506;49.346;8.798;2023-03-01T00:24:11;14.15;;;9.30;;
74941;SDS011;63506;49.346;8.798;2023-03-01T00:26:38;15.98;;;9.65;;
74941;SDS011;63506;49.346;8.798;2023-03-01T00:29:10;12.00;;;9.02;;
74941;SDS011;63506;49.346;8.798;2023-03-01T00:31:37;10.20;;;8.63;;
74941;SDS011;63506;49.346;8.798;2023-03-01T00:34:05;10.85;;;8.52;;
74941;SDS011;63506;49.346;8.798;2023-03-01T00:36:35;12.57;;;10.45;;
74941;SDS011;63506;49.346;8.798;2023-03-01T00:39:11;15.63;;;8.65;;
74941;SDS011;63506;49.346;8.798;2023-03-01T00:41:41;15.48;;;10.00;;
74941;SDS011;63506;49.346;8.798;2023-03-01T00:44:12;14.02;;;9.80;;
74941;SDS011;63506;49.346;8.798;2023-03-01T00:46:41;13.02;;;8.88;;
74941;SDS011;63506;49.346;8.798;2023-03-01T00:49:09;13.80;;;9.95;;
74941;SDS011;63506;49.346;8.798;2023-03-01T00:51:37;14.02;;;10.15;;
74941;SDS011;63506;49.346;8.798;2023-03-01T00:54:11;14.80;;;8.27;;
74941;SDS011;63506;49.346;8.798;2023-03-01T00:56:41;14.98;;;9.18;;
74941;SDS011;63506;49.346;8.798;2023-03-01T00:59:09;10.75;;;9.30;;
74941;SDS011;63506;49.346;8.798;2023-03-01T01:01:37;14.98;;;10.00;;
74941;SDS011;63506;49.346;8.798;2023-03-01T01:04:10;10.50;;;9.18;;
74941;SDS011;63506;49.346;8.798;2023-03-01T01:06:39;14.63;;;10.32;;
74941;SDS011;63506;49.346;8.798;2023-03-01T01:09:09;13.48;;;9.93;;
74941;SDS011;63506;49.346;8.798;2023-03-01T01:11:43;13.45;;;9.38;;
74941;SDS011;63506;49.346;8.798;2023-03-01T01:14:15;14.35;;;11.07;;
74941;SDS011;63506;49.346;8.798;2023-03-01T01:16:44;15.57;;;9.40;;
74941;SDS011;63506;49.346;8.798;2023-03-01T01:19:14;17.45;;;11.02;;
74941;SDS011;63506;49.346;8.798;2023-03-01T01:21:42;13.20;;;10.38;;
74941;SDS011;63506;49.346;8.798;2023-03-01T01:24:10;13.13;;;11.00;;
74941;SDS011;63506;49.346;8.798;2023-03-01T01:26:40;12.30;;;9.95;;
74941;SDS011;63506;49.346;8.798;2023-03-01T01:29:13;13.10;;;9.35;;
74941;SDS011;63506;49.346;8.798;2023-03-01T01:31:44;15.45;;;11.15;;
74941;SDS011;63506;49.346;8.798;2023-03-01T01:34:15;16.08;;;10.82;;
74941;SDS011;63506;49.346;8.798;2023-03-01T01:36:47;13.10;;;9.38;;
74941;SDS011;63506;49.346;8.798;2023-03-01T01:39:15;14.45;;;11.05;;
74941;SDS011;63506;49.346;8.798;2023-03-01T01:41:45;14.45;;;10.73;;
74941;SDS011;63506;49.346;8.798;2023-03-01T01:44:14;16.92;;;10.45;;
74941;SDS011;63506;49.346;8.798;2023-03-01T01:46:47;13.82;;;9.18;;
74941;SDS011;63506;49.346;8.798;2023-03-01T01:49:17;10.27;;;9.25;;
74941;SDS011;63506;49.346;8.798;2023-03-01T01:51:53;16.50;;;11.32;;
74941;SDS011;63506;49.346;8.798;2023-03-01T01:54:30;18.30;;;12.25;;
74941;SDS011;63506;49.346;8.798;2023-03-01T01:57:01;14.75;;;10.80;;
74941;SDS011;63506;49.346;8.798;2023-03-01T01:59:30;17.98;;;10.02;;
74941;SDS011;63506;49.346;8.798;2023-03-01T02:02:00;16.90;;;13.02;;
74941;SDS011;63506;49.346;8.798;2023-03-01T02:04:30;15.80;;;9.50;;
74941;SDS011;63506;49.346;8.798;2023-03-01T02:07:01;17.60;;;11.45;;
74941;SDS011;63506;49.346;8.798;2023-03-01T02:09:33;23.33;;;14.07;;
74941;SDS011;63506;49.346;8.798;2023-03-01T02:12:01;19.35;;;11.93;;
74941;SDS011;63506;49.346;8.798;2023-03-01T02:14:31;18.85;;;12.10;;
74941;SDS011;63506;49.346;8.798;2023-03-01T02:16:58;15.30;;;10.55;;
74941;SDS011;63506;49.346;8.798;2023-03-01T02:19:33;13.43;;;10.15;;
74941;SDS011;63506;49.346;8.798;2023-03-01T02:22:12;13.73;;;11.07;;
74941;SDS011;63506;49.346;8.798;2023-03-01T02:24:50;13.60;;;11.15;;
74941;SDS011;63506;49.346;8.798;2023-03-01T02:27:31;14.43;;;12.88;;
74941;SDS011;63506;49.346;8.798;2023-03-01T02:30:04;14.88;;;11.50;;
74941;SDS011;63506;49.346;8.798;2023-03-01T02:32:34;14.00;;;9.80;;
74941;SDS011;63506;49.346;8.798;2023-03-01T02:35:01;14.38;;;11.30;;
74941;SDS011;63506;49.346;8.798;2023-03-01T02:37:28;12.98;;;10.32;;
74941;SDS011;63506;49.346;8.798;2023-03-01T02:39:57;17.42;;;9.80;;
74941;SDS011;63506;49.346;8.798;2023-03-01T02:42:26;14.25;;;11.30;;
74941;SDS011;63506;49.346;8.798;2023-03-01T02:45:00;14.95;;;11.13;;
74941;SDS011;63506;49.346;8.798;2023-03-01T02:47:33;16.05;;;11.82;;
74941;SDS011;63506;49.346;8.798;2023-03-01T02:50:00;15.07;;;10.70;;
74941;SDS011;63506;49.346;8.798;2023-03-01T02:52:34;19.20;;;13.15;;
74941;SDS011;63506;49.346;8.798;2023-03-01T02:55:10;17.35;;;11.20;;
74941;SDS011;63506;49.346;8.798;2023-03-01T02:57:39;14.50;;;10.00;;
74941;SDS011;63506;49.346;8.798;2023-03-01T03:00:09;13.23;;;10.80;;
74941;SDS011;63506;49.346;8.798;2023-03-01T03:02:46;14.40;;;10.38;;
74941;SDS011;63506;49.346;8.798;2023-03-01T03:05:18;14.05;;;10.30;;
74941;SDS011;63506;49.346;8.798;2023-03-01T03:10:21;17.40;;;10.75;;
74941;SDS011;63506;49.346;8.798;2023-03-01T03:12:53;18.77;;;13.57;;
74941;SDS011;63506;49.346;8.798;2023-03-01T03:15:21;14.70;;;11.90;;
74941;SDS011;63506;49.346;8.798;2023-03-01T03:17:50;18.05;;;11.85;;
74941;SDS011;63506;49.346;8.798;2023-03-01T03:20:19;18.60;;;12.73;;
74941;SDS011;63506;49.346;8.798;2023-03-01T03:22:48;21.88;;;13.32;;
74941;SDS011;63506;49.346;8.798;2023-03-01T03:27:50;21.38;;;13.32;;
74941;SDS011;63506;49.346;8.798;2023-03-01T03:30:22;21.02;;;12.98;;
74941;SDS011;63506;49.346;8.798;2023-03-01T03:32:52;18.48;;;12.18;;
74941;SDS011;63506;49.346;8.798;2023-03-01T03:35:22;23.60;;;14.65;;
74941;SDS011;63506;49.346;8.798;2023-03-01T03:37:53;19.00;;;12.00;;
74941;SDS011;63506;49.346;8.798;2023-03-01T03:40:30;17.85;;;12.32;;
74941;SDS011;63506;49.346;8.798;2023-03-01T03:43:01;20.67;;;13.57;;
74941;SDS011;63506;49.346;8.798;2023-03-01T03:45:29;20.73;;;12.50;;
74941;SDS011;63506;49.346;8.798;2023-03-01T03:48:27;23.05;;;13.88;;
74941;SDS011;63506;49.346;8.798;2023-03-01T03:50:55;21.52;;;13.38;;
74941;SDS011;63506;49.346;8.798;2023-03-01T03:53:23;18.25;;;12.77;;
74941;SDS011;63506;49.346;8.798;2023-03-01T03:55:51;18.30;;;11.98;;
74941;SDS011;63506;49.346;8.798;2023-03-01T03:58:20;24.92;;;13.45;;
74941;SDS011;63506;49.346;8.798;2023-03-01T04:00:49;18.75;;;13.07;;
74941;SDS011;63506;49.346;8.798;2023-03-01T04:03:18;19.40;;;13.55;;
74941;SDS011;63506;49.346;8.798;2023-03-01T04:05:49;19.98;;;15.13;;
74941;SDS011;63506;49.346;8.798;2023-03-01T04:08:22;22.52;;;13.80;;
74941;SDS011;63506;49.346;8.798;2023-03-01T04:10:55;21.98;;;12.18;;
74941;SDS011;63506;49.346;8.798;2023-03-01T04:13:24;24.70;;;15.13;;
74941;SDS011;63506;49.346;8.798;2023-03-01T04:15:54;17.05;;;14.77;;
74941;SDS011;63506;49.346;8.798;2023-03-01T04:18:23;21.45;;;13.20;;
74941;SDS011;63506;49.346;8.798;2023-03-01T04:20:52;23.13;;;15.00;;
74941;SDS011;63506;49.346;8.798;2023-03-01T04:23:23;20.63;;;14.02;;
74941;SDS011;63506;49.346;8.798;2023-03-01T04:25:51;23.92;;;15.48;;
74941;SDS011;63506;49.346;8.798;2023-03-01T04:28:24;22.77;;;13.97;;
74941;SDS011;63506;49.346;8.798;2023-03-01T04:30:52;18.70;;;13.32;;
74941;SDS011;63506;49.346;8.798;2023-03-01T04:33:20;19.92;;;13.38;;
74941;SDS011;63506;49.346;8.798;2023-03-01T04:35:48;21.48;;;13.45;;
74941;SDS011;63506;49.346;8.798;2023-03-01T04:38:17;21.88;;;13.98;;
74941;SDS011;63506;49.346;8.798;2023-03-01T04:40:45;17.10;;;12.70;;
74941;SDS011;63506;49.346;8.798;2023-03-01T04:43:13;23.38;;;15.50;;
74941;SDS011;63506;49.346;8.798;2023-03-01T04:45:41;24.00;;;17.65;;
74941;SDS011;63506;49.346;8.798;2023-03-01T04:48:10;23.55;;;16.35;;
74941;SDS011;63506;49.346;8.798;2023-03-01T04:50:40;21.60;;;13.85;;
74941;SDS011;63506;49.346;8.798;2023-03-01T04:53:07;27.75;;;15.55;;
74941;SDS011;63506;49.346;8.798;2023-03-01T04:55:38;20.73;;;12.93;;
74941;SDS011;63506;49.346;8.798;2023-03-01T04:58:05;27.00;;;14.40;;
74941;SDS011;63506;49.346;8.798;2023-03-01T05:00:32;22.27;;;14.00;;
74941;SDS011;63506;49.346;8.798;2023-03-01T05:03:02;21.10;;;14.18;;
74941;SDS011;63506;49.346;8.798;2023-03-01T05:05:32;21.15;;;14.30;;
74941;SDS011;63506;49.346;8.798;2023-03-01T05:08:01;24.20;;;14.63;;
74941;SDS011;63506;49.346;8.798;2023-03-01T05:10:30;22.75;;;15.27;;
74941;SDS011;63506;49.346;8.798;2023-03-01T05:12:59;20.95;;;14.00;;
74941;SDS011;63506;49.346;8.798;2023-03-01T05:15:29;21.00;;;11.48;;
74941;SDS011;63506;49.346;8.798;2023-03-01T05:18:00;20.98;;;14.95;;
74941;SDS011;63506;49.346;8.798;2023-03-01T05:20:28;22.48;;;13.50;;
74941;SDS011;63506;49.346;8.798;2023-03-01T05:22:56;25.13;;;15.15;;
74941;SDS011;63506;49.346;8.798;2023-03-01T05:25:25;20.67;;;14.25;;
74941;SDS011;63506;49.346;8.798;2023-03-01T05:27:54;27.30;;;17.05;;
74941;SDS011;63506;49.346;8.798;2023-03-01T05:30:25;23.02;;;16.70;;
74941;SDS011;63506;49.346;8.798;2023-03-01T05:32:55;25.00;;;14.35;;
74941;SDS011;63506;49.346;8.798;2023-03-01T05:35:22;25.10;;;16.05;;
74941;SDS011;63506;49.346;8.798;2023-03-01T05:37:50;24.30;;;15.23;;
74941;SDS011;63506;49.346;8.798;2023-03-01T05:40:19;20.88;;;14.15;;
74941;SDS011;63506;49.346;8.798;2023-03-01T05:42:48;21.95;;;15.30;;
74941;SDS011;63506;49.346;8.798;2023-03-01T05:45:16;24.27;;;14.57;;
74941;SDS011;63506;49.346;8.798;2023-03-01T05:47:46;25.42;;;15.38;;
74941;SDS011;63506;49.346;8.798;2023-03-01T05:50:18;20.98;;;14.32;;
74941;SDS011;63506;49.346;8.798;2023-03-01T05:52:47;26.98;;;16.88;;
74941;SDS011;63506;49.346;8.798;2023-03-01T05:55:15;22.98;;;16.17;;
74941;SDS011;63506;49.346;8.798;2023-03-01T05:57:43;21.38;;;15.85;;
74941;SDS011;63506;49.346;8.798;2023-03-01T06:00:13;27.42;;;16.65;;
74941;SDS011;63506;49.346;8.798;2023-03-01T06:02:42;29.08;;;15.75;;
74941;SDS011;63506;49.346;8.798;2023-03-01T06:05:11;25.13;;;16.17;;
74941;SDS011;63506;49.346;8.798;2023-03-01T06:07:40;27.75;;;15.13;;
74941;SDS011;63506;49.346;8.798;2023-03-01T06:10:08;23.30;;;15.02;;
74941;SDS011;63506;49.346;8.798;2023-03-01T06:12:37;23.77;;;14.88;;
74941;SDS011;63506;49.346;8.798;2023-03-01T06:15:05;21.45;;;14.48;;
74941;SDS011;63506;49.346;8.798;2023-03-01T06:17:35;24.92;;;14.95;;
74941;SDS011;63506;49.346;8.798;2023-03-01T06:20:04;20.92;;;14.63;;
74941;SDS011;63506;49.346;8.798;2023-03-01T06:22:33;24.40;;;17.08;;
74941;SDS011;63506;49.346;8.798;2023-03-01T06:25:03;26.08;;;14.82;;
74941;SDS011;63506;49.346;8.798;2023-03-01T06:27:31;31.10;;;13.50;;
74941;SDS011;63506;49.346;8.798;2023-03-01T06:29:58;22.55;;;14.70;;
74941;SDS011;63506;49.346;8.798;2023-03-01T06:32:26;21.25;;;15.13;;
74941;SDS011;63506;49.346;8.798;2023-03-01T06:34:58;23.10;;;16.60;;
74941;SDS011;63506;49.346;8.798;2023-03-01T06:37:25;17.50;;;13.55;;
74941;SDS011;63506;49.346;8.798;2023-03-01T06:39:53;25.60;;;14.63;;
74941;SDS011;63506;49.346;8.798;2023-03-01T06:42:21;25.52;;;16.75;;
74941;SDS011;63506;49.346;8.798;2023-03-01T06:44:50;26.00;;;17.02;;
74941;SDS011;63506;49.346;8.798;2023-03-01T06:47:20;21.02;;;14.30;;
74941;SDS011;63506;49.346;8.798;2023-03-01T06:49:49;21.92;;;14.70;;
74941;SDS011;63506;49.346;8.798;2023-03-01T06:52:17;23.27;;;15.23;;
74941;SDS011;63506;49.346;8.798;2023-03-01T06:54:46;20.50;;;14.88;;
74941;SDS011;63506;49.346;8.798;2023-03-01T06:57:17;19.58;;;14.45;;
74941;SDS011;63506;49.346;8.798;2023-03-01T06:59:44;23.60;;;15.27;;
74941;SDS011;63506;49.346;8.798;2023-03-01T07:02:17;23.63;;;15.07;;
74941;SDS011;63506;49.346;8.798;2023-03-01T07:04:48;23.73;;;16.58;;
74941;SDS011;63506;49.346;8.798;2023-03-01T07:07:15;25.17;;;16.35;;
74941;SDS011;63506;49.346;8.798;2023-03-01T07:09:43;25.52;;;15.77;;
74941;SDS011;63506;49.346;8.798;2023-03-01T07:12:11;24.38;;;13.57;;
74941;SDS011;63506;49.346;8.798;2023-03-01T07:14:43;20.02;;;14.38;;
74941;SDS011;63506;49.346;8.798;2023-03-01T07:17:13;20.80;;;13.80;;
74941;SDS011;63506;49.346;8.798;2023-03-01T07:19:40;21.30;;;13.25;;
74941;SDS011;63506;49.346;8.798;2023-03-01T07:22:07;15.80;;;12.20;;
74941;SDS011;63506;49.346;8.798;2023-03-01T07:24:37;15.93;;;11.90;;
74941;SDS011;63506;49.346;8.798;2023-03-01T07:27:04;14.88;;;11.70;;
74941;SDS011;63506;49.346;8.798;2023-03-01T07:38:24;17.75;;;11.82;;
74941;SDS011;63506;49.346;8.798;2023-03-01T07:40:51;18.52;;;13.63;;
74941;SDS011;63506;49.346;8.798;2023-03-01T07:43:19;19.25;;;13.60;;
74941;SDS011;63506;49.346;8.798;2023-03-01T07:45:46;21.00;;;12.20;;
74941;SDS011;63506;49.346;8.798;2023-03-01T07:48:13;25.55;;;13.68;;
74941;SDS011;63506;49.346;8.798;2023-03-01T07:50:41;28.50;;;12.98;;
74941;SDS011;63506;49.346;8.798;2023-03-01T07:53:11;15.35;;;11.70;;
74941;SDS011;63506;49.346;8.798;2023-03-01T07:55:40;15.82;;;11.43;;
74941;SDS011;63506;49.346;8.798;2023-03-01T07:58:08;17.70;;;12.57;;
74941;SDS011;63506;49.346;8.798;2023-03-01T08:00:35;14.95;;;12.13;;
74941;SDS011;63506;49.346;8.798;2023-03-01T08:03:02;21.40;;;14.85;;
74941;SDS011;63506;49.346;8.798;2023-03-01T08:05:30;14.55;;;11.57;;
74941;SDS011;63506;49.346;8.798;2023-03-01T08:07:59;17.02;;;11.73;;
74941;SDS011;63506;49.346;8.798;2023-03-01T08:10:29;18.73;;;13.07;;
74941;SDS011;63506;49.346;8.798;2023-03-01T08:13:00;16.63;;;12.07;;
74941;SDS011;63506;49.346;8.798;2023-03-01T08:15:30;19.85;;;13.38;;
74941;SDS011;63506;49.346;8.798;2023-03-01T08:17:58;18.20;;;11.90;;
74941;SDS011;63506;49.346;8.798;2023-03-01T08:20:26;14.75;;;11.95;;
74941;SDS011;63506;49.346;8.798;2023-03-01T08:22:54;17.88;;;13.00;;
74941;SDS011;63506;49.346;8.798;2023-03-01T08:25:21;19.73;;;11.98;;
74941;SDS011;63506;49.346;8.798;2023-03-01T08:27:49;18.20;;;13.13;;
74941;SDS011;63506;49.346;8.798;2023-03-01T08:30:18;19.98;;;12.65;;
74941;SDS011;63506;49.346;8.798;2023-03-01T08:32:46;18.98;;;14.82;;
74941;SDS011;63506;49.346;8.798;2023-03-01T08:35:16;16.42;;;11.57;;
74941;SDS011;63506;49.346;8.798;2023-03-01T08:37:44;23.33;;;13.50;;
74941;SDS011;63506;49.346;8.798;2023-03-01T08:40:11;17.83;;;12.30;;
74941;SDS011;63506;49.346;8.798;2023-03-01T08:42:40;22.85;;;14.20;;
74941;SDS011;63506;49.346;8.798;2023-03-01T08:45:09;17.67;;;12.55;;
74941;SDS011;63506;49.346;8.798;2023-03-01T08:47:38;20.00;;;14.73;;
74941;SDS011;63506;49.346;8.798;2023-03-01T08:50:06;18.10;;;12.73;;
74941;SDS011;63506;49.346;8.798;2023-03-01T08:52:37;19.73;;;13.75;;
74941;SDS011;63506;49.346;8.798;2023-03-01T08:55:04;21.38;;;14.57;;
74941;SDS011;63506;49.346;8.798;2023-03-01T08:57:33;19.25;;;12.95;;
74941;SDS011;63506;49.346;8.798;2023-03-01T09:00:02;19.60;;;13.98;;
74941;SDS011;63506;49.346;8.798;2023-03-01T09:02:34;18.70;;;12.85;;
74941;SDS011;63506;49.346;8.798;2023-03-01T09:05:03;20.48;;;15.63;;
74941;SDS011;63506;49.346;8.798;2023-03-01T09:07:33;20.25;;;13.68;;
74941;SDS011;63506;49.346;8.798;2023-03-01T09:10:01;18.95;;;14.57;;
74941;SDS011;63506;49.346;8.798;2023-03-01T09:12:29;24.10;;;15.48;;
74941;SDS011;63506;49.346;8.798;2023-03-01T09:14:58;23.70;;;14.13;;
74941;SDS011;63506;49.346;8.798;2023-03-01T09:17:26;18.48;;;12.30;;
74941;SDS011;63506;49.346;8.798;2023-03-01T09:19:53;17.65;;;13.27;;
74941;SDS011;63506;49.346;8.798;2023-03-01T09:22:22;18.33;;;13.23;;
74941;SDS011;63506;49.346;8.798;2023-03-01T09:24:50;21.33;;;13.48;;
74941;SDS011;63506;49.346;8.798;2023-03-01T09:27:17;26.30;;;14.50;;
74941;SDS011;63506;49.346;8.798;2023-03-01T09:29:44;20.85;;;14.13;;
74941;SDS011;63506;49.346;8.798;2023-03-01T09:32:12;23.67;;;16.50;;
74941;SDS011;63506;49.346;8.798;2023-03-01T09:34:39;21.67;;;13.90;;
74941;SDS011;63506;49.346;8.798;2023-03-01T09:37:22;24.35;;;14.23;;
74941;SDS011;63506;49.346;8.798;2023-03-01T09:39:52;18.52;;;13.18;;
74941;SDS011;63506;49.346;8.798;2023-03-01T09:42:20;18.20;;;13.38;;
74941;SDS011;63506;49.346;8.798;2023-03-01T09:44:49;19.60;;;13.02;;
74941;SDS011;63506;49.346;8.798;2023-03-01T09:47:20;20.40;;;13.20;;
74941;SDS011;63506;49.346;8.798;2023-03-01T09:49:51;16.48;;;12.43;;
74941;SDS011;63506;49.346;8.798;2023-03-01T09:52:30;18.73;;;12.98;;
74941;SDS011;63506;49.346;8.798;2023-03-01T09:55:05;17.83;;;13.85;;
74941;SDS011;63506;49.346;8.798;2023-03-01T10:12:32;20.45;;;15.70;;
74941;SDS011;63506;49.346;8.798;2023-03-01T10:17:33;19.25;;;14.48;;
74941;SDS011;63506;49.346;8.798;2023-03-01T10:20:11;17.60;;;12.30;;
74941;SDS011;63506;49.346;8.798;2023-03-01T10:22:42;18.25;;;13.80;;
74941;SDS011;63506;49.346;8.798;2023-03-01T10:25:12;17.17;;;13.40;;
74941;SDS011;63506;49.346;8.798;2023-03-01T10:27:42;24.60;;;13.20;;
74941;SDS011;63506;49.346;8.798;2023-03-01T10:57:51;14.50;;;11.18;;
74941;SDS011;63506;49.346;8.798;2023-03-01T11:00:34;19.80;;;13.02;;
74941;SDS011;63506;49.346;8.798;2023-03-01T11:03:13;17.88;;;11.50;;
74941;SDS011;63506;49.346;8.798;2023-03-01T11:05:53;17.10;;;12.20;;
74941;SDS011;63506;49.346;8.798;2023-03-01T11:08:29;20.60;;;13.65;;
74941;SDS011;63506;49.346;8.798;2023-03-01T11:13:54;18.70;;;12.25;;
74941;SDS011;63506;49.346;8.798;2023-03-01T11:16:22;18.45;;;11.35;;
74941;SDS011;63506;49.346;8.798;2023-03-01T11:21:53;16.40;;;11.30;;
74941;SDS011;63506;49.346;8.798;2023-03-01T11:24:29;16.42;;;12.13;;
74941;SDS011;63506;49.346;8.798;2023-03-01T11:26:59;16.23;;;12.23;;
74941;SDS011;63506;49.346;8.798;2023-03-01T11:29:32;19.83;;;12.07;;
74941;SDS011;63506;49.346;8.798;2023-03-01T11:32:04;17.08;;;11.43;;
74941;SDS011;63506;49.346;8.798;2023-03-01T11:34:39;15.82;;;12.98;;
74941;SDS011;63506;49.346;8.798;2023-03-01T11:37:11;16.33;;;11.63;;
74941;SDS011;63506;49.346;8.798;2023-03-01T11:39:50;23.00;;;14.68;;
74941;SDS011;63506;49.346;8.798;2023-03-01T11:42:24;15.43;;;11.38;;
74941;SDS011;63506;49.346;8.798;2023-03-01T11:44:59;18.17;;;10.73;;
74941;SDS011;63506;49.346;8.798;2023-03-01T11:47:32;15.43;;;11.52;;
74941;SDS011;63506;49.346;8.798;2023-03-01T11:50:13;16.40;;;11.82;;
74941;SDS011;63506;49.346;8.798;2023-03-01T11:52:48;18.65;;;11.57;;
74941;SDS011;63506;49.346;8.798;2023-03-01T11:55:26;17.15;;;11.50;;
74941;SDS011;63506;49.346;8.798;2023-03-01T11:58:07;17.30;;;11.93;;
74941;SDS011;63506;49.346;8.798;2023-03-01T12:03:33;15.50;;;11.05;;
74941;SDS011;63506;49.346;8.798;2023-03-01T12:09:01;13.77;;;10.77;;
74941;SDS011;63506;49.346;8.798;2023-03-01T12:11:39;13.93;;;11.50;;
74941;SDS011;63506;49.346;8.798;2023-03-01T12:17:04;18.23;;;12.32;;
74941;SDS011;63506;49.346;8.798;2023-03-01T12:19:42;17.48;;;12.10;;
74941;SDS011;63506;49.346;8.798;2023-03-01T12:22:27;15.98;;;10.90;;
74941;SDS011;63506;49.346;8.798;2023-03-01T12:25:20;21.30;;;12.05;;
74941;SDS011;63506;49.346;8.798;2023-03-01T12:30:54;14.68;;;11.38;;
74941;SDS011;63506;49.346;8.798;2023-03-01T12:33:31;13.77;;;9.68;;
74941;SDS011;63506;49.346;8.798;2023-03-01T12:36:09;12.68;;;9.65;;
74941;SDS011;63506;49.346;8.798;2023-03-01T12:39:17;15.88;;;12.07;;
74941;SDS011;63506;49.346;8.798;2023-03-01T12:41:55;16.98;;;11.27;;
74941;SDS011;63506;49.346;8.798;2023-03-01T12:44:35;11.98;;;9.05;;
74941;SDS011;63506;49.346;8.798;2023-03-01T12:47:12;14.52;;;10.77;;
74941;SDS011;63506;49.346;8.798;2023-03-01T12:49:48;14.85;;;11.77;;
74941;SDS011;63506;49.346;8.798;2023-03-01T12:52:20;18.25;;;11.68;;
74941;SDS011;63506;49.346;8.798;2023-03-01T12:54:51;14.98;;;10.57;;
74941;SDS011;63506;49.346;8.798;2023-03-01T12:57:21;13.90;;;9.70;;
74941;SDS011;63506;49.346;8.798;2023-03-01T12:59:59;17.55;;;11.30;;
74941;SDS011;63506;49.346;8.798;2023-03-01T13:02:35;15.52;;;11.10;;
74941;SDS011;63506;49.346;8.798;2023-03-01T13:05:17;15.52;;;10.68;;
74941;SDS011;63506;49.346;8.798;2023-03-01T13:07:52;14.73;;;10.52;;
74941;SDS011;63506;49.346;8.798;2023-03-01T13:10:24;13.20;;;9.43;;
74941;SDS011;63506;49.346;8.798;2023-03-01T13:13:01;16.10;;;11.57;;
74941;SDS011;63506;49.346;8.798;2023-03-01T13:15:38;11.20;;;9.30;;
74941;SDS011;63506;49.346;8.798;2023-03-01T13:21:05;14.13;;;9.90;;
74941;SDS011;63506;49.346;8.798;2023-03-01T13:23:58;16.30;;;11.60;;
74941;SDS011;63506;49.346;8.798;2023-03-01T13:26:25;18.55;;;9.23;;
74941;SDS011;63506;49.346;8.798;2023-03-01T13:28:54;13.88;;;11.57;;
74941;SDS011;63506;49.346;8.798;2023-03-01T13:37:25;15.35;;;9.85;;
74941;SDS011;63506;49.346;8.798;2023-03-01T13:43:27;12.80;;;10.02;;
74941;SDS011;63506;49.346;8.798;2023-03-01T13:45:56;14.25;;;10.20;;
74941;SDS011;63506;49.346;8.798;2023-03-01T13:48:25;17.42;;;11.32;;
74941;SDS011;63506;49.346;8.798;2023-03-01T13:50:55;12.48;;;10.02;;
74941;SDS011;63506;49.346;8.798;2023-03-01T13:53:30;16.02;;;10.23;;
74941;SDS011;63506;49.346;8.798;2023-03-01T13:56:01;14.15;;;10.10;;
74941;SDS011;63506;49.346;8.798;2023-03-01T13:58:30;15.32;;;10.90;;
74941;SDS011;63506;49.346;8.798;2023-03-01T14:00:59;11.68;;;9.57;;
74941;SDS011;63506;49.346;8.798;2023-03-01T14:03:28;19.80;;;11.20;;
74941;SDS011;63506;49.346;8.798;2023-03-01T14:06:02;17.08;;;10.25;;
74941;SDS011;63506;49.346;8.798;2023-03-01T14:08:35;12.82;;;8.82;;
74941;SDS011;63506;49.346;8.798;2023-03-01T14:11:13;13.48;;;10.20;;
74941;SDS011;63506;49.346;8.798;2023-03-01T14:14:03;12.38;;;9.43;;
74941;SDS011;63506;49.346;8.798;2023-03-01T14:16:39;20.30;;;11.55;;
74941;SDS011;63506;49.346;8.798;2023-03-01T14:19:14;14.27;;;11.48;;
74941;SDS011;63506;49.346;8.798;2023-03-01T14:21:45;15.20;;;10.80;;
74941;SDS011;63506;49.346;8.798;2023-03-01T14:24:18;15.32;;;11.52;;
74941;SDS011;63506;49.346;8.798;2023-03-01T14:26:48;14.68;;;10.73;;
74941;SDS011;63506;49.346;8.798;2023-03-01T14:29:26;12.95;;;9.93;;
74941;SDS011;63506;49.346;8.798;2023-03-01T14:31:54;16.02;;;11.23;;
74941;SDS011;63506;49.346;8.798;2023-03-01T14:34:22;14.63;;;10.20;;
74941;SDS011;63506;49.346;8.798;2023-03-01T14:36:51;14.13;;;9.38;;
74941;SDS011;63506;49.346;8.798;2023-03-01T14:39:23;17.98;;;9.98;;
74941;SDS011;63506;49.346;8.798;2023-03-01T14:41:53;13.80;;;9.82;;
74941;SDS011;63506;49.346;8.798;2023-03-01T14:44:24;14.65;;;10.73;;
74941;SDS011;63506;49.346;8.798;2023-03-01T14:46:54;13.27;;;10.18;;
74941;SDS011;63506;49.346;8.798;2023-03-01T14:49:24;15.25;;;9.20;;
74941;SDS011;63506;49.346;8.798;2023-03-01T14:51:54;13.43;;;9.60;;
74941;SDS011;63506;49.346;8.798;2023-03-01T14:54:25;13.65;;;10.38;;
74941;SDS011;63506;49.346;8.798;2023-03-01T14:56:57;17.02;;;10.98;;
74941;SDS011;63506;49.346;8.798;2023-03-01T14:59:28;14.18;;;9.40;;
74941;SDS011;63506;49.346;8.798;2023-03-01T15:01:58;16.20;;;10.75;;
74941;SDS011;63506;49.346;8.798;2023-03-01T15:04:27;16.17;;;10.55;;
74941;SDS011;63506;49.346;8.798;2023-03-01T15:06:56;18.58;;;10.90;;
74941;SDS011;63506;49.346;8.798;2023-03-01T15:09:35;15.68;;;10.52;;
74941;SDS011;63506;49.346;8.798;2023-03-01T15:18:35;14.15;;;9.05;;
74941;SDS011;63506;49.346;8.798;2023-03-01T15:21:16;15.27;;;10.05;;
74941;SDS011;63506;49.346;8.798;2023-03-01T15:24:24;11.32;;;9.00;;
74941;SDS011;63506;49.346;8.798;2023-03-01T15:27:30;12.63;;;9.77;;
74941;SDS011;63506;49.346;8.798;2023-03-01T15:30:02;11.52;;;9.52;;
74941;SDS011;63506;49.346;8.798;2023-03-01T15:32:31;15.45;;;10.15;;
74941;SDS011;63506;49.346;8.798;2023-03-01T15:38:02;16.33;;;10.95;;
74941;SDS011;63506;49.346;8.798;2023-03-01T15:40:33;17.17;;;9.27;;
74941;SDS011;63506;49.346;8.798;2023-03-01T15:43:04;14.43;;;9.65;;
74941;SDS011;63506;49.346;8.798;2023-03-01T15:45:35;11.88;;;8.90;;
74941;SDS011;63506;49.346;8.798;2023-03-01T15:48:04;14.07;;;10.45;;
74941;SDS011;63506;49.346;8.798;2023-03-01T15:50:41;13.60;;;10.35;;
74941;SDS011;63506;49.346;8.798;2023-03-01T15:53:11;14.35;;;10.55;;
74941;SDS011;63506;49.346;8.798;2023-03-01T15:55:44;13.35;;;9.27;;
74941;SDS011;63506;49.346;8.798;2023-03-01T15:58:16;17.52;;;9.98;;
74941;SDS011;63506;49.346;8.798;2023-03-01T16:00:45;15.80;;;10.45;;
74941;SDS011;63506;49.346;8.798;2023-03-01T16:03:16;15.80;;;10.70;;
74941;SDS011;63506;49.346;8.798;2023-03-01T16:05:50;12.85;;;9.27;;
74941;SDS011;63506;49.346;8.798;2023-03-01T16:08:18;17.55;;;11.38;;
74941;SDS011;63506;49.346;8.798;2023-03-01T16:10:48;15.63;;;9.55;;
74941;SDS011;63506;49.346;8.798;2023-03-01T16:13:17;11.27;;;9.07;;
74941;SDS011;63506;49.346;8.798;2023-03-01T16:15:45;14.98;;;10.35;;
74941;SDS011;63506;49.346;8.798;2023-03-01T16:18:12;13.48;;;10.35;;
74941;SDS011;63506;49.346;8.798;2023-03-01T16:20:42;12.43;;;8.82;;
74941;SDS011;63506;49.346;8.798;2023-03-01T16:23:10;14.68;;;9.80;;
74941;SDS011;63506;49.346;8.798;2023-03-01T16:25:38;11.88;;;9.25;;